Time;durP1;ratioP1;P1;durP2;ratioP2;P2;SDS_P1;SDS_P2;PMS_P1;PMS_P2;Temp;Humidity;BMP_temperature;BMP_pressure;BME280_temperature;BME280_humidity;BME280_pressure;Samples;Min_cycle;Max_cycle;Signal;HPM_P1;HPM_P2
2022/02/22 00:00:07;;;;;;;;;;;6.70;99.90;;;;;;4403646;32;44606;-80
2022/02/22 00:02:34;;;;;;;;;;;6.70;99.90;;;;;;4403775;32;45936;-80
2022/02/22 00:05:02;;;;;;;;;;;6.70;99.90;;;;;;4403496;32;42295;-79
2022/02/22 00:07:30;;;;;;;;;;;6.70;99.90;;;;;;4405195;32;43910;-80
2022/02/22 00:09:57;;;;;;;;;;;6.70;99.90;;;;;;4406259;32;44572;-80
2022/02/22 00:12:24;;;;;;;;;;;6.70;99.90;;;;;;4406993;32;42890;-80
2022/02/22 00:14:51;;;;;;;;;;;6.60;99.90;;;;;;4407760;32;42877;-80
2022/02/22 00:17:18;;;;;;;;;;;6.60;99.90;;;;;;4407664;32;45114;-80
2022/02/22 00:19:45;;;;;;;;;;;6.60;99.90;;;;;;4406656;32;43216;-80
2022/02/22 00:22:13;;;;;;;;;;;6.60;99.90;;;;;;4406861;32;43771;-80
2022/02/22 00:24:42;;;;;;;;;;;6.60;99.90;;;;;;4407952;32;43771;-80
2022/02/22 00:27:09;;;;;;;;;;;6.60;99.90;;;;;;4406519;32;42733;-80
2022/02/22 00:29:37;;;;;;;;;;;6.60;99.90;;;;;;4408015;32;42982;-80
2022/02/22 00:32:04;;;;;;;;;;;6.60;99.90;;;;;;4407919;32;45530;-80
2022/02/22 00:34:31;;;;;;;;;;;6.60;99.90;;;;;;4408044;32;43509;-80
2022/02/22 00:36:58;;;;;;;;;;;6.60;99.90;;;;;;4407650;32;44325;-80
2022/02/22 00:39:25;;;;;;;;;;;6.60;99.90;;;;;;4406858;32;44215;-80
2022/02/22 00:41:52;;;;;;;;;;;6.60;99.90;;;;;;4406659;32;43758;-80
2022/02/22 00:44:21;;;;;;;;;;;6.60;99.90;;;;;;4406412;32;43027;-80
2022/02/22 00:46:50;;;;;;;;;;;6.60;99.90;;;;;;4406462;32;43976;-80
2022/02/22 00:49:17;;;;;;;;;;;6.60;99.90;;;;;;4406187;32;43340;-80
2022/02/22 00:51:45;;;;;;;;;;;6.50;99.90;;;;;;4407224;32;45499;-80
2022/02/22 00:54:12;;;;;;;;;;;6.50;99.90;;;;;;4406178;32;43228;-80
2022/02/22 00:56:39;;;;;;;;;;;6.60;99.90;;;;;;4406526;32;42709;-80
2022/02/22 00:59:06;;;;;;;;;;;6.50;99.90;;;;;;4406396;32;44052;-80
2022/02/22 01:01:33;;;;;;;;;;;6.50;99.90;;;;;;4407426;32;44199;-80
2022/02/22 01:04:00;;;;;;;;;;;6.50;99.90;;;;;;4407804;32;44223;-80
2022/02/22 01:06:27;;;;;;;;;;;6.50;99.90;;;;;;4407259;32;44191;-80
2022/02/22 01:08:56;;;;;;;;;;;6.50;99.90;;;;;;4406092;32;42747;-80
2022/02/22 01:11:23;;;;;;;;;;;6.50;99.90;;;;;;4405974;32;42831;-80
2022/02/22 01:13:50;;;;;;;;;;;6.50;99.90;;;;;;4406938;32;44066;-80
2022/02/22 01:16:17;;;;;;;;;;;6.50;99.90;;;;;;4406988;32;43022;-80
2022/02/22 01:18:45;;;;;;;;;;;6.50;99.90;;;;;;4405880;32;43922;-80
2022/02/22 01:21:12;;;;;;;;;;;6.50;99.90;;;;;;4405147;32;43802;-80
2022/02/22 01:23:39;;;;;;;;;;;6.40;99.90;;;;;;4406056;32;43769;-80
2022/02/22 01:26:06;;;;;;;;;;;6.40;99.90;;;;;;4407299;32;44790;-80
2022/02/22 01:28:33;;;;;;;;;;;6.40;99.90;;;;;;4405671;32;42678;-80
2022/02/22 01:31:03;;;;;;;;;;;6.40;99.90;;;;;;4405765;32;43250;-80
2022/02/22 01:33:30;;;;;;;;;;;6.40;99.90;;;;;;4406881;32;43228;-80
2022/02/22 01:35:57;;;;;;;;;;;6.40;99.90;;;;;;4405959;32;45563;-80
2022/02/22 01:38:24;;;;;;;;;;;6.40;99.90;;;;;;4405468;32;44187;-80
2022/02/22 01:40:52;;;;;;;;;;;6.40;99.90;;;;;;4405983;32;43887;-79
2022/02/22 01:43:19;;;;;;;;;;;6.40;99.90;;;;;;4405541;32;43274;-80
2022/02/22 01:45:46;;;;;;;;;;;6.40;99.90;;;;;;4406738;32;43344;-80
2022/02/22 01:48:13;;;;;;;;;;;6.40;99.90;;;;;;4405498;32;44266;-80
2022/02/22 01:50:41;;;;;;;;;;;6.30;99.90;;;;;;4405629;32;43591;-80
2022/02/22 01:53:09;;;;;;;;;;;6.30;99.90;;;;;;4405711;32;43478;-80
2022/02/22 01:55:38;;;;;;;;;;;6.40;99.90;;;;;;4405369;32;44444;-81
2022/02/22 01:58:05;;;;;;;;;;;6.30;99.90;;;;;;4406369;32;42956;-80
2022/02/22 02:00:32;;;;;;;;;;;6.40;99.90;;;;;;4406766;32;43125;-80
2022/02/22 02:02:59;;;;;;;;;;;6.30;99.90;;;;;;4404981;32;43486;-79
2022/02/22 02:05:26;;;;;;;;;;;6.30;99.90;;;;;;4406517;32;43088;-80
2022/02/22 02:07:53;;;;;;;;;;;6.30;99.90;;;;;;4406547;32;42781;-80
2022/02/22 02:10:20;;;;;;;;;;;6.30;99.90;;;;;;4405071;32;42837;-80
2022/02/22 02:12:47;;;;;;;;;;;6.30;99.90;;;;;;4405143;32;43277;-80
2022/02/22 02:15:15;;;;;;;;;;;6.30;99.90;;;;;;4406209;32;43398;-80
2022/02/22 02:17:42;;;;;;;;;;;6.30;99.90;;;;;;4406304;32;42316;-80
2022/02/22 02:20:11;;;;;;;;;;;6.30;99.90;;;;;;4406216;32;41921;-80
2022/02/22 02:22:38;;;;;;;;;;;6.20;99.90;;;;;;4404874;32;45804;-80
2022/02/22 02:25:06;;;;;;;;;;;6.30;99.90;;;;;;4406060;32;42923;-80
2022/02/22 02:27:33;;;;;;;;;;;6.20;99.90;;;;;;4405895;32;44223;-80
2022/02/22 02:30:01;;;;;;;;;;;6.20;99.90;;;;;;4406154;32;43458;-80
2022/02/22 02:32:28;;;;;;;;;;;6.20;99.90;;;;;;4405661;32;43022;-80
2022/02/22 02:34:56;;;;;;;;;;;6.20;99.90;;;;;;4405265;32;43470;-80
2022/02/22 02:37:23;;;;;;;;;;;6.20;99.90;;;;;;4405734;32;44122;-80
2022/02/22 02:39:50;;;;;;;;;;;6.20;99.90;;;;;;4405695;32;43950;-80
2022/02/22 02:42:18;;;;;;;;;;;6.20;99.90;;;;;;4404925;32;43496;-80
2022/02/22 02:44:47;;;;;;;;;;;6.10;99.90;;;;;;4405985;32;44288;-80
2022/02/22 02:47:15;;;;;;;;;;;6.10;99.90;;;;;;4404530;32;43569;-80
2022/02/22 02:49:43;;;;;;;;;;;6.10;99.90;;;;;;4404487;32;43490;-80
2022/02/22 02:52:10;;;;;;;;;;;6.10;99.90;;;;;;4405974;32;43183;-80
2022/02/22 02:54:37;;;;;;;;;;;6.10;99.90;;;;;;4404612;32;42702;-80
2022/02/22 02:57:05;;;;;;;;;;;6.10;99.90;;;;;;4404640;32;42634;-80
2022/02/22 02:59:32;;;;;;;;;;;6.00;99.90;;;;;;4405736;32;43771;-80
2022/02/22 03:01:59;;;;;;;;;;;6.00;99.90;;;;;;4405521;32;41866;-80
2022/02/22 03:04:28;;;;;;;;;;;6.00;99.90;;;;;;4404214;32;45665;-80
2022/02/22 03:06:55;;;;;;;;;;;6.00;99.90;;;;;;4405367;32;42505;-80
2022/02/22 03:09:22;;;;;;;;;;;6.00;99.90;;;;;;4405802;32;44555;-80
2022/02/22 03:11:50;;;;;;;;;;;5.90;99.90;;;;;;4404709;32;42899;-80
2022/02/22 03:14:18;;;;;;;;;;;5.90;99.90;;;;;;4404145;32;43454;-80
2022/02/22 03:16:45;;;;;;;;;;;5.90;99.90;;;;;;4405286;32;43850;-79
2022/02/22 03:19:12;;;;;;;;;;;5.90;99.90;;;;;;4403978;32;43482;-80
2022/02/22 03:21:40;;;;;;;;;;;5.90;99.90;;;;;;4404182;32;43498;-80
2022/02/22 03:24:08;;;;;;;;;;;5.90;99.90;;;;;;4405265;32;42924;-80
2022/02/22 03:26:35;;;;;;;;;;;5.80;99.90;;;;;;4403960;32;45795;-80
2022/02/22 03:29:02;;;;;;;;;;;5.80;99.90;;;;;;4404187;32;44205;-80
2022/02/22 03:31:30;;;;;;;;;;;5.80;99.90;;;;;;4405598;32;42994;-80
2022/02/22 03:33:58;;;;;;;;;;;5.80;99.90;;;;;;4404325;32;44582;-79
2022/02/22 03:36:25;;;;;;;;;;;5.80;99.90;;;;;;4404403;32;43479;-80
2022/02/22 03:38:54;;;;;;;;;;;5.70;99.90;;;;;;4404918;32;42898;-79
2022/02/22 03:41:22;;;;;;;;;;;5.80;99.90;;;;;;4403820;32;42205;-80
2022/02/22 03:43:50;;;;;;;;;;;5.70;99.90;;;;;;4404381;32;45873;-80
2022/02/22 03:46:17;;;;;;;;;;;5.80;99.90;;;;;;4404227;32;44010;-80
2022/02/22 03:48:44;;;;;;;;;;;5.80;99.90;;;;;;4404815;32;43200;-80
2022/02/22 03:51:11;;;;;;;;;;;5.80;99.90;;;;;;4404235;32;43915;-80
2022/02/22 03:53:40;;;;;;;;;;;5.70;99.90;;;;;;4403695;32;43524;-80
2022/02/22 03:56:08;;;;;;;;;;;5.70;99.90;;;;;;4403929;32;43812;-80
2022/02/22 03:58:35;;;;;;;;;;;5.70;99.90;;;;;;4404002;32;43064;-80
2022/02/22 04:01:02;;;;;;;;;;;5.70;99.90;;;;;;4403521;32;43764;-80
2022/02/22 04:03:29;;;;;;;;;;;5.70;99.90;;;;;;4403645;32;43193;-80
2022/02/22 04:05:56;;;;;;;;;;;5.80;99.90;;;;;;4404141;32;43474;-80
2022/02/22 04:08:23;;;;;;;;;;;5.70;99.90;;;;;;4404943;32;43348;-80
2022/02/22 04:10:51;;;;;;;;;;;5.70;99.90;;;;;;4403667;32;44125;-80
2022/02/22 04:13:18;;;;;;;;;;;5.70;99.90;;;;;;4404042;32;45147;-80
2022/02/22 04:15:46;;;;;;;;;;;5.70;99.90;;;;;;4403573;32;44191;-80
2022/02/22 04:18:13;;;;;;;;;;;5.70;99.90;;;;;;4404784;32;43908;-80
2022/02/22 04:20:40;;;;;;;;;;;5.70;99.90;;;;;;4403958;32;44569;-80
2022/02/22 04:23:07;;;;;;;;;;;5.70;99.90;;;;;;4404096;32;44173;-80
2022/02/22 04:25:35;;;;;;;;;;;5.70;99.90;;;;;;4403554;32;43926;-80
2022/02/22 04:28:02;;;;;;;;;;;5.70;99.90;;;;;;4404675;32;43365;-80
2022/02/22 04:30:29;;;;;;;;;;;5.70;99.90;;;;;;4403881;32;43322;-80
2022/02/22 04:33:01;;;;;;;;;;;5.70;99.90;;;;;;4403372;32;44585;-80
2022/02/22 04:35:29;;;;;;;;;;;5.70;99.90;;;;;;4404678;32;43991;-80
2022/02/22 04:37:56;;;;;;;;;;;5.70;99.90;;;;;;4404434;32;43738;-80
2022/02/22 04:40:23;;;;;;;;;;;5.70;99.90;;;;;;4404645;32;44723;-80
2022/02/22 04:42:52;;;;;;;;;;;5.70;99.90;;;;;;4403872;32;44098;-80
2022/02/22 04:45:19;;;;;;;;;;;5.70;99.90;;;;;;4403788;32;44325;-80
2022/02/22 04:47:47;;;;;;;;;;;5.70;99.90;;;;;;4404437;32;44311;-80
2022/02/22 04:50:17;;;;;;;;;;;5.70;99.90;;;;;;4404556;32;43242;-80
2022/02/22 04:52:44;;;;;;;;;;;5.70;99.90;;;;;;4404634;32;44953;-80
2022/02/22 04:55:11;;;;;;;;;;;5.70;99.90;;;;;;4403634;32;43292;-80
2022/02/22 04:57:38;;;;;;;;;;;5.70;99.90;;;;;;4406405;32;45526;-80
2022/02/22 05:00:07;;;;;;;;;;;5.70;99.90;;;;;;4407781;32;43854;-80
2022/02/22 05:02:34;;;;;;;;;;;5.70;99.90;;;;;;4407090;32;43895;-80
2022/02/22 05:05:01;;;;;;;;;;;5.70;99.90;;;;;;4407678;32;44088;-80
2022/02/22 05:07:28;;;;;;;;;;;5.70;99.90;;;;;;4406069;32;42741;-80
2022/02/22 05:09:58;;;;;;;;;;;5.80;99.90;;;;;;4407014;32;42726;-80
2022/02/22 05:12:25;;;;;;;;;;;5.70;99.90;;;;;;4405923;32;43763;-79
2022/02/22 05:14:52;;;;;;;;;;;5.70;99.90;;;;;;4407156;32;43157;-80
2022/02/22 05:17:19;;;;;;;;;;;5.70;99.90;;;;;;4406907;32;43363;-80
2022/02/22 05:19:46;;;;;;;;;;;5.70;99.90;;;;;;4406050;32;45580;-80
2022/02/22 05:22:13;;;;;;;;;;;5.70;99.90;;;;;;4406915;32;42762;-80
2022/02/22 05:24:41;;;;;;;;;;;5.70;99.90;;;;;;4406835;32;46242;-80
2022/02/22 05:27:08;;;;;;;;;;;5.70;99.90;;;;;;4405644;32;42726;-79
2022/02/22 05:29:35;;;;;;;;;;;5.70;99.90;;;;;;4406525;32;43536;-80
2022/02/22 05:32:03;;;;;;;;;;;5.70;99.90;;;;;;4406042;32;44140;-80
2022/02/22 05:34:33;;;;;;;;;;;5.70;99.90;;;;;;4405619;32;43124;-80
2022/02/22 05:37:00;;;;;;;;;;;5.70;99.90;;;;;;4406090;32;43370;-80
2022/02/22 05:39:28;;;;;;;;;;;5.70;99.90;;;;;;4406490;32;43224;-80
2022/02/22 05:41:55;;;;;;;;;;;5.70;99.90;;;;;;4406005;32;45247;-80
2022/02/22 05:44:22;;;;;;;;;;;5.70;99.90;;;;;;4407059;32;43194;-80
2022/02/22 05:46:52;;;;;;;;;;;5.70;99.90;;;;;;4405445;32;43550;-80
2022/02/22 05:49:22;;;;;;;;;;;5.70;99.90;;;;;;4405951;32;44121;-80
2022/02/22 05:51:50;;;;;;;;;;;5.70;99.90;;;;;;4406628;32;44946;-80
2022/02/22 05:54:17;;;;;;;;;;;5.70;99.90;;;;;;4406422;32;43219;-80
2022/02/22 05:56:48;;;;;;;;;;;5.70;99.90;;;;;;4406157;32;44180;-80
2022/02/22 05:59:16;;;;;;;;;;;5.70;99.90;;;;;;4406599;32;45062;-80
2022/02/22 06:01:43;;;;;;;;;;;5.70;99.90;;;;;;4405222;32;42810;-80
2022/02/22 06:04:11;;;;;;;;;;;5.70;99.90;;;;;;4405338;32;43028;-80
2022/02/22 06:06:39;;;;;;;;;;;5.70;99.90;;;;;;4404921;32;42652;-80
2022/02/22 06:09:09;;;;;;;;;;;5.70;99.90;;;;;;4405025;32;44108;-80
2022/02/22 06:11:37;;;;;;;;;;;5.70;99.90;;;;;;4405065;32;43565;-80
2022/02/22 06:14:04;;;;;;;;;;;5.70;99.90;;;;;;4405043;32;45559;-80
2022/02/22 06:16:32;;;;;;;;;;;5.70;99.90;;;;;;4404997;32;45068;-80
2022/02/22 06:18:59;;;;;;;;;;;5.70;99.90;;;;;;4406433;32;44716;-80
2022/02/22 06:21:26;;;;;;;;;;;5.70;99.90;;;;;;4406382;32;43334;-80
2022/02/22 06:23:53;;;;;;;;;;;5.70;99.90;;;;;;4405260;32;44121;-80
2022/02/22 06:26:21;;;;;;;;;;;5.70;99.90;;;;;;4406266;32;43349;-80
2022/02/22 06:28:50;;;;;;;;;;;5.70;99.90;;;;;;4405418;32;43564;-80
2022/02/22 06:31:17;;;;;;;;;;;5.70;99.90;;;;;;4405243;32;45273;-80
2022/02/22 06:33:44;;;;;;;;;;;5.70;99.90;;;;;;4406220;32;43704;-80
2022/02/22 06:36:11;;;;;;;;;;;5.70;99.90;;;;;;4405261;32;43521;-80
2022/02/22 06:38:38;;;;;;;;;;;5.80;99.90;;;;;;4405118;32;43865;-80
2022/02/22 06:41:05;;;;;;;;;;;5.70;99.90;;;;;;4405226;32;43938;-80
2022/02/22 06:43:32;;;;;;;;;;;5.80;99.90;;;;;;4406168;32;43500;-80
2022/02/22 06:45:59;;;;;;;;;;;5.80;99.90;;;;;;4405090;32;46040;-80
2022/02/22 06:48:27;;;;;;;;;;;5.70;99.90;;;;;;4406019;32;43985;-80
2022/02/22 06:50:54;;;;;;;;;;;5.70;99.90;;;;;;4406004;32;45571;-80
2022/02/22 06:53:21;;;;;;;;;;;5.70;99.90;;;;;;4405728;32;44762;-80
2022/02/22 06:55:48;;;;;;;;;;;5.80;99.90;;;;;;4406003;32;43194;-80
2022/02/22 06:58:15;;;;;;;;;;;5.70;99.90;;;;;;4405540;32;42902;-80
2022/02/22 07:00:45;;;;;;;;;;;5.80;99.90;;;;;;4405814;32;44262;-80
2022/02/22 07:03:13;;;;;;;;;;;5.80;99.90;;;;;;4404365;32;44236;-80
2022/02/22 07:05:41;;;;;;;;;;;5.80;99.90;;;;;;4405879;32;44491;-80
2022/02/22 07:08:08;;;;;;;;;;;5.70;99.90;;;;;;4406218;32;43302;-80
2022/02/22 07:10:35;;;;;;;;;;;5.70;99.90;;;;;;4405866;32;42986;-80
2022/02/22 07:13:02;;;;;;;;;;;5.70;99.90;;;;;;4404207;32;42322;-80
2022/02/22 07:15:29;;;;;;;;;;;5.70;99.90;;;;;;4405592;32;45785;-80
2022/02/22 07:17:58;;;;;;;;;;;5.70;99.90;;;;;;4405418;32;43216;-80
2022/02/22 07:20:25;;;;;;;;;;;5.80;99.90;;;;;;4404568;32;44586;-80
2022/02/22 07:22:55;;;;;;;;;;;5.70;99.90;;;;;;4404558;32;43950;-80
2022/02/22 07:25:23;;;;;;;;;;;5.70;99.90;;;;;;4404049;32;43474;-80
2022/02/22 07:27:51;;;;;;;;;;;5.70;99.90;;;;;;4405509;32;43263;-80
2022/02/22 07:30:18;;;;;;;;;;;5.80;99.90;;;;;;4403928;32;43389;-80
2022/02/22 07:32:46;;;;;;;;;;;5.70;99.90;;;;;;4405101;32;43632;-80
2022/02/22 07:35:14;;;;;;;;;;;5.70;99.90;;;;;;4403983;32;44122;-80
2022/02/22 07:37:43;;;;;;;;;;;5.80;99.90;;;;;;4405283;32;42938;-80
2022/02/22 07:40:11;;;;;;;;;;;5.70;99.90;;;;;;4404940;32;42879;-80
2022/02/22 07:42:39;;;;;;;;;;;5.70;99.90;;;;;;4404851;32;42411;-80
2022/02/22 07:45:07;;;;;;;;;;;5.70;99.90;;;;;;4403957;32;43834;-79
2022/02/22 07:47:34;;;;;;;;;;;5.70;99.90;;;;;;4403888;32;43960;-80
2022/02/22 07:50:03;;;;;;;;;;;5.70;99.90;;;;;;4404277;32;44172;-80
2022/02/22 07:52:33;;;;;;;;;;;5.80;99.90;;;;;;4405260;32;43194;-80
2022/02/22 07:55:00;;;;;;;;;;;5.80;99.90;;;;;;4403722;32;44029;-80
2022/02/22 07:57:28;;;;;;;;;;;5.80;99.90;;;;;;4403853;32;42719;-80
2022/02/22 07:59:58;;;;;;;;;;;5.80;99.90;;;;;;4403591;32;46193;-80
2022/02/22 08:02:26;;;;;;;;;;;5.80;99.90;;;;;;4403305;32;45765;-80
2022/02/22 08:04:53;;;;;;;;;;;5.80;99.90;;;;;;4403478;32;43830;-80
2022/02/22 08:07:21;;;;;;;;;;;5.80;99.90;;;;;;4403594;32;43237;-80
2022/02/22 08:09:49;;;;;;;;;;;5.80;99.90;;;;;;4404037;32;44711;-80
2022/02/22 08:12:18;;;;;;;;;;;5.80;99.90;;;;;;4403645;32;42761;-80
2022/02/22 08:14:46;;;;;;;;;;;5.80;99.90;;;;;;4404131;32;42796;-81
2022/02/22 08:17:13;;;;;;;;;;;5.80;99.90;;;;;;4403742;32;44176;-80
2022/02/22 08:19:40;;;;;;;;;;;5.80;99.90;;;;;;4403904;32;43012;-80
2022/02/22 08:22:07;;;;;;;;;;;5.80;99.90;;;;;;4403904;32;42932;-80
2022/02/22 08:24:34;;;;;;;;;;;5.80;99.90;;;;;;4404282;32;20010;-80
2022/02/22 08:27:03;;;;;;;;;;;5.80;99.90;;;;;;4403944;32;43122;-80
2022/02/22 08:29:31;;;;;;;;;;;5.80;99.90;;;;;;4403427;32;43872;-80
2022/02/22 08:31:58;;;;;;;;;;;5.80;99.90;;;;;;4406152;32;43859;-80
2022/02/22 08:34:29;;;;;;;;;;;5.80;99.90;;;;;;4407451;32;27728;-80
2022/02/22 08:36:56;;;;;;;;;;;5.80;99.90;;;;;;4406398;32;43242;-80
2022/02/22 08:39:25;;;;;;;;;;;5.80;99.90;;;;;;4406498;32;44007;-80
2022/02/22 08:41:52;;;;;;;;;;;5.80;99.90;;;;;;4406923;32;43961;-80
2022/02/22 08:44:19;;;;;;;;;;;5.80;99.90;;;;;;4406401;32;43528;-80
2022/02/22 08:46:48;;;;;;;;;;;5.90;99.90;;;;;;4407373;32;42251;-80
2022/02/22 08:49:18;;;;;;;;;;;5.80;99.90;;;;;;4407689;32;43404;-80
2022/02/22 08:51:45;;;;;;;;;;;5.90;99.90;;;;;;4406130;32;45361;-80
2022/02/22 08:54:12;;;;;;;;;;;5.90;99.90;;;;;;4406305;32;43495;-80
2022/02/22 08:56:39;;;;;;;;;;;5.90;99.90;;;;;;4407603;32;46078;-81
2022/02/22 08:59:08;;;;;;;;;;;5.90;99.90;;;;;;4407179;32;43066;-80
2022/02/22 09:01:35;;;;;;;;;;;5.90;99.90;;;;;;4406894;32;42675;-81
2022/02/22 09:04:03;;;;;;;;;;;5.90;99.90;;;;;;4407606;32;44186;-81
2022/02/22 09:06:30;;;;;;;;;;;5.90;99.90;;;;;;4406345;32;43598;-80
2022/02/22 09:08:59;;;;;;;;;;;5.90;99.90;;;;;;4406218;32;45089;-80
2022/02/22 09:11:27;;;;;;;;;;;5.90;99.90;;;;;;4405983;32;43370;-80
2022/02/22 09:13:54;;;;;;;;;;;5.90;99.90;;;;;;4407307;32;42577;-80
2022/02/22 09:16:23;;;;;;;;;;;6.00;99.90;;;;;;4406303;32;42351;-80
2022/02/22 09:18:53;;;;;;;;;;;5.90;99.90;;;;;;4405851;32;43965;-80
2022/02/22 09:21:20;;;;;;;;;;;6.00;99.90;;;;;;4406955;32;43294;-81
2022/02/22 09:23:47;;;;;;;;;;;6.00;99.90;;;;;;4407026;32;42743;-81
2022/02/22 09:26:17;;;;;;;;;;;6.00;99.90;;;;;;4405844;32;43303;-80
2022/02/22 09:28:45;;;;;;;;;;;6.00;99.90;;;;;;4407328;32;43192;-81
2022/02/22 09:31:15;;;;;;;;;;;6.00;99.90;;;;;;4405586;32;44178;-80
2022/02/22 09:33:43;;;;;;;;;;;6.00;99.90;;;;;;4406399;32;45504;-81
2022/02/22 09:36:10;;;;;;;;;;;6.00;99.90;;;;;;4405633;32;44285;-81
2022/02/22 09:38:37;;;;;;;;;;;6.00;99.90;;;;;;4405838;32;43525;-80
2022/02/22 09:41:10;;;;;;;;;;;6.00;99.90;;;;;;4406080;32;43189;-80
2022/02/22 09:43:39;;;;;;;;;;;6.10;99.90;;;;;;4405836;32;44495;-81
2022/02/22 09:46:09;;;;;;;;;;;6.10;99.90;;;;;;4405897;32;42839;-81
2022/02/22 09:48:37;;;;;;;;;;;6.10;99.90;;;;;;4407052;32;45081;-80
2022/02/22 09:51:07;;;;;;;;;;;6.10;99.90;;;;;;4405611;32;43502;-81
2022/02/22 09:53:34;;;;;;;;;;;6.10;99.90;;;;;;4406694;32;45229;-81
2022/02/22 09:56:01;;;;;;;;;;;6.10;99.90;;;;;;4405317;32;43486;-80
2022/02/22 09:58:28;;;;;;;;;;;6.10;99.90;;;;;;4406938;32;42970;-81
2022/02/22 10:00:59;;;;;;;;;;;6.10;99.90;;;;;;4406807;32;43197;-81
2022/02/22 10:03:27;;;;;;;;;;;6.10;99.90;;;;;;4406203;32;43377;-81
2022/02/22 10:05:58;;;;;;;;;;;6.10;99.90;;;;;;4405325;32;43993;-80
2022/02/22 10:08:29;;;;;;;;;;;6.20;99.90;;;;;;4406289;32;43264;-80
2022/02/22 10:11:00;;;;;;;;;;;6.20;99.90;;;;;;4405473;32;44796;-81
2022/02/22 10:13:27;;;;;;;;;;;6.10;99.90;;;;;;4405040;32;44886;-81
2022/02/22 10:15:54;;;;;;;;;;;6.20;99.90;;;;;;4406789;32;43868;-81
2022/02/22 10:18:27;;;;;;;;;;;6.20;99.90;;;;;;4406509;32;42246;-81
2022/02/22 10:20:55;;;;;;;;;;;6.20;99.90;;;;;;4405036;32;44204;-81
2022/02/22 10:23:27;;;;;;;;;;;6.20;99.90;;;;;;4406072;32;42772;-81
2022/02/22 10:25:55;;;;;;;;;;;6.20;99.90;;;;;;4405533;32;44302;-80
2022/02/22 10:28:22;;;;;;;;;;;6.20;99.90;;;;;;4406193;32;43390;-80
2022/02/22 10:30:53;;;;;;;;;;;6.20;99.90;;;;;;4405894;32;43344;-80
2022/02/22 10:33:30;;;;;;;;;;;6.20;99.90;;;;;;4405220;32;42724;-81
2022/02/22 10:36:04;;;;;;;;;;;6.30;99.90;;;;;;4405875;32;43498;-81
2022/02/22 10:38:36;;;;;;;;;;;6.30;99.90;;;;;;4406325;32;43068;-81
2022/02/22 10:41:05;;;;;;;;;;;6.30;99.90;;;;;;4405294;32;44286;-81
2022/02/22 10:43:35;;;;;;;;;;;6.30;99.90;;;;;;4404668;32;43979;-81
2022/02/22 10:46:09;;;;;;;;;;;6.30;99.90;;;;;;4404667;32;44203;-81
2022/02/22 10:48:41;;;;;;;;;;;6.30;99.90;;;;;;4406120;32;45782;-81
2022/02/22 10:51:10;;;;;;;;;;;6.30;99.90;;;;;;4406073;32;44301;-81
2022/02/22 10:53:46;;;;;;;;;;;6.30;99.90;;;;;;4405800;32;45062;-81
2022/02/22 10:56:15;;;;;;;;;;;6.30;99.90;;;;;;4406087;32;43536;-81
2022/02/22 10:58:45;;;;;;;;;;;6.40;99.90;;;;;;4406045;32;43358;-81
2022/02/22 11:01:15;;;;;;;;;;;6.40;99.90;;;;;;4404984;32;44015;-81
2022/02/22 11:03:44;;;;;;;;;;;6.40;99.90;;;;;;4405435;32;42593;-81
2022/02/22 11:06:12;;;;;;;;;;;6.40;99.90;;;;;;4405535;32;44124;-81
2022/02/22 11:08:40;;;;;;;;;;;6.40;99.90;;;;;;4404783;32;43020;-81
2022/02/22 11:11:32;;;;;;;;;;;6.40;99.90;;;;;;4405037;32;43959;-81
2022/02/22 11:14:01;;;;;;;;;;;6.40;99.90;;;;;;4405659;32;44664;-81
2022/02/22 11:16:38;;;;;;;;;;;6.40;99.90;;;;;;4404581;32;44072;-81
2022/02/22 11:19:13;;;;;;;;;;;6.40;99.90;;;;;;4404205;32;42796;-81
2022/02/22 11:21:43;;;;;;;;;;;6.50;99.90;;;;;;4404087;32;43961;-81
2022/02/22 11:24:11;;;;;;;;;;;6.50;99.90;;;;;;4404533;32;44285;-81
2022/02/22 11:26:45;;;;;;;;;;;6.50;99.90;;;;;;4405147;32;44178;-81
2022/02/22 11:29:13;;;;;;;;;;;6.50;99.90;;;;;;4404500;32;45190;-81
2022/02/22 11:31:40;;;;;;;;;;;6.50;99.90;;;;;;4404232;32;42307;-81
2022/02/22 11:34:07;;;;;;;;;;;6.50;99.90;;;;;;4404277;32;43991;-81
2022/02/22 11:36:39;;;;;;;;;;;6.50;99.90;;;;;;4404196;32;45920;-81
2022/02/22 11:39:07;;;;;;;;;;;6.60;99.90;;;;;;4404846;32;44753;-81
2022/02/22 11:41:41;;;;;;;;;;;6.60;99.90;;;;;;4404450;32;44065;-81
2022/02/22 11:44:13;;;;;;;;;;;6.60;99.90;;;;;;4405592;32;44935;-81
2022/02/22 11:46:48;;;;;;;;;;;6.60;99.90;;;;;;4404304;32;44414;-81
2022/02/22 11:49:23;;;;;;;;;;;6.60;99.90;;;;;;4404316;32;43960;-81
2022/02/22 11:52:10;;;;;;;;;;;6.60;99.90;;;;;;4404457;32;46142;-81
2022/02/22 11:54:37;;;;;;;;;;;6.60;99.90;;;;;;4404767;32;44195;-81
2022/02/22 11:57:08;;;;;;;;;;;6.70;99.90;;;;;;4405924;32;19996;-81
2022/02/22 11:59:45;;;;;;;;;;;6.70;99.90;;;;;;4403646;32;43775;-80
2022/02/22 12:02:23;;;;;;;;;;;6.70;99.90;;;;;;4403751;32;43346;-81
2022/02/22 12:04:57;;;;;;;;;;;6.70;99.90;;;;;;4404991;32;43840;-80
2022/02/22 12:07:28;;;;;;;;;;;6.70;99.90;;;;;;4403655;32;42644;-80
2022/02/22 12:09:56;;;;;;;;;;;6.70;99.90;;;;;;4404669;32;43734;-80
2022/02/22 12:12:24;;;;;;;;;;;6.70;99.90;;;;;;4403604;32;44058;-80
2022/02/22 12:14:53;;;;;;;;;;;6.70;99.90;;;;;;4403647;32;42878;-80
2022/02/22 12:17:20;;;;;;;;;;;6.70;99.90;;;;;;4404803;32;43109;-79
2022/02/22 12:19:50;;;;;;;;;;;6.70;99.90;;;;;;4403734;32;44400;-79
2022/02/22 12:22:19;;;;;;;;;;;6.80;99.90;;;;;;4404557;32;42782;-79
2022/02/22 12:24:56;;;;;;;;;;;6.80;99.90;;;;;;4404514;32;45128;-79
2022/02/22 12:27:27;;;;;;;;;;;6.70;99.90;;;;;;4405462;32;19992;-79
2022/02/22 12:29:55;;;;;;;;;;;6.80;99.90;;;;;;4403763;32;44282;-79
2022/02/22 12:32:23;;;;;;;;;;;6.80;99.90;;;;;;4404870;32;43227;-79
2022/02/22 12:34:56;;;;;;;;;;;6.80;99.90;;;;;;4403932;32;43036;-79
2022/02/22 12:37:25;;;;;;;;;;;6.80;99.90;;;;;;4405014;32;42347;-79
2022/02/22 12:39:53;;;;;;;;;;;6.80;99.90;;;;;;4403774;32;44955;-79
2022/02/22 12:42:20;;;;;;;;;;;6.80;99.90;;;;;;4403327;32;44979;-79
2022/02/22 12:44:56;;;;;;;;;;;6.80;99.90;;;;;;4404836;32;42933;-79
2022/02/22 12:47:23;;;;;;;;;;;6.80;99.90;;;;;;4403837;32;43319;-79
2022/02/22 12:49:51;;;;;;;;;;;6.90;99.90;;;;;;4404303;32;43133;-79
2022/02/22 12:52:18;;;;;;;;;;;6.90;99.90;;;;;;4404355;32;43142;-79
2022/02/22 12:55:09;;;;;;;;;;;6.90;99.90;;;;;;4404707;32;45514;-79
2022/02/22 12:57:43;;;;;;;;;;;6.90;99.90;;;;;;4405495;32;20412;-80
2022/02/22 13:00:28;;;;;;;;;;;6.90;99.90;;;;;;4403866;32;43946;-80
2022/02/22 13:03:03;;;;;;;;;;;6.90;99.90;;;;;;4403221;32;44116;-80
2022/02/22 13:05:30;;;;;;;;;;;6.90;99.90;;;;;;4404127;32;44169;-80
2022/02/22 13:07:57;;;;;;;;;;;6.90;99.90;;;;;;4404729;32;44237;-79
2022/02/22 13:10:24;;;;;;;;;;;6.90;99.90;;;;;;4404734;32;43360;-80
2022/02/22 13:13:00;;;;;;;;;;;7.00;99.90;;;;;;4404145;32;43342;-80
2022/02/22 13:15:28;;;;;;;;;;;6.90;99.90;;;;;;4403296;32;43866;-80
2022/02/22 13:17:56;;;;;;;;;;;7.00;99.90;;;;;;4405445;32;42665;-80
2022/02/22 13:20:24;;;;;;;;;;;7.00;99.90;;;;;;4406136;32;42320;-79
2022/02/22 13:22:51;;;;;;;;;;;7.00;99.90;;;;;;4405818;32;43216;-80
2022/02/22 13:25:18;;;;;;;;;;;7.00;99.90;;;;;;4405885;32;42565;-79
2022/02/22 13:27:48;;;;;;;;;;;7.00;99.90;;;;;;4407632;32;19992;-80
2022/02/22 13:30:33;;;;;;;;;;;7.00;99.90;;;;;;4405857;32;44604;-80
2022/02/22 13:33:05;;;;;;;;;;;7.00;99.90;;;;;;4405796;32;43285;-80
2022/02/22 13:35:33;;;;;;;;;;;7.10;99.90;;;;;;4405952;32;43068;-80
2022/02/22 13:38:20;;;;;;;;;;;7.00;99.90;;;;;;4407134;32;45614;-80
2022/02/22 13:40:47;;;;;;;;;;;7.10;99.90;;;;;;4406798;32;43862;-80
2022/02/22 13:43:16;;;;;;;;;;;7.10;99.90;;;;;;4405744;32;43439;-80
2022/02/22 13:45:46;;;;;;;;;;;7.10;99.90;;;;;;4405511;32;44176;-80
2022/02/22 13:48:13;;;;;;;;;;;7.10;99.90;;;;;;4405856;32;43176;-80
2022/02/22 13:50:44;;;;;;;;;;;7.10;99.90;;;;;;4406524;32;43475;-80
2022/02/22 13:53:12;;;;;;;;;;;7.10;99.90;;;;;;4405838;32;42707;-80
2022/02/22 13:55:51;;;;;;;;;;;7.20;99.90;;;;;;4406445;32;44007;-80
2022/02/22 13:58:22;;;;;;;;;;;7.20;99.90;;;;;;4406675;32;20054;-80
2022/02/22 14:00:51;;;;;;;;;;;7.20;99.90;;;;;;4406841;32;42859;-80
2022/02/22 14:03:20;;;;;;;;;;;7.20;99.90;;;;;;4405073;32;42634;-80
2022/02/22 14:05:47;;;;;;;;;;;7.20;99.90;;;;;;4406960;32;43456;-80
2022/02/22 14:08:14;;;;;;;;;;;7.20;99.90;;;;;;4405762;32;43471;-80
2022/02/22 14:10:45;;;;;;;;;;;7.20;99.90;;;;;;4405292;32;43474;-80
2022/02/22 14:13:13;;;;;;;;;;;7.20;99.90;;;;;;4405258;32;44023;-80
2022/02/22 14:15:41;;;;;;;;;;;7.30;99.90;;;;;;4406492;32;44620;-80
2022/02/22 14:18:10;;;;;;;;;;;7.30;99.90;;;;;;4405234;32;42719;-80
2022/02/22 14:20:37;;;;;;;;;;;7.30;99.90;;;;;;4405834;32;43518;-80
2022/02/22 14:23:07;;;;;;;;;;;7.30;99.90;;;;;;4405227;32;44017;-80
2022/02/22 14:25:36;;;;;;;;;;;7.30;99.90;;;;;;4405499;32;43271;-80
2022/02/22 14:28:04;;;;;;;;;;;7.30;99.90;;;;;;4404583;32;44044;-80
2022/02/22 14:30:31;;;;;;;;;;;7.30;99.90;;;;;;4405852;32;44207;-80
2022/02/22 14:32:58;;;;;;;;;;;7.40;99.90;;;;;;4406482;32;44298;-80
2022/02/22 14:35:25;;;;;;;;;;;7.40;99.90;;;;;;4405989;32;43080;-80
2022/02/22 14:37:57;;;;;;;;;;;7.40;99.90;;;;;;4405062;32;43483;-80